Time;durP1;ratioP1;P1;durP2;ratioP2;P2;SDS_P1;SDS_P2;PMS_P1;PMS_P2;Temp;Humidity;BMP_temperature;BMP_pressure;BME280_temperature;BME280_humidity;BME280_pressure;Samples;Min_cycle;Max_cycle;Signal;HPM_P1;HPM_P2
2021/07/22 00:00:41;;;;;;;1999.90;999.90;;;6.10;99.90;;;;;;5093333;28;20195;-47
2021/07/22 00:03:08;;;;;;;1999.90;999.90;;;6.10;99.90;;;;;;5093201;28;20298;-45
2021/07/22 00:05:34;;;;;;;1999.90;999.90;;;6.10;99.90;;;;;;5093073;28;20197;-44
2021/07/22 00:08:02;;;;;;;1999.90;999.90;;;6.10;99.90;;;;;;5093153;28;20258;-46
2021/07/22 00:10:29;;;;;;;1999.90;999.90;;;6.10;99.90;;;;;;5093012;28;20218;-46
2021/07/22 00:12:56;;;;;;;1999.90;999.90;;;6.10;99.90;;;;;;5093092;28;20301;-46
2021/07/22 00:15:23;;;;;;;1999.90;999.90;;;6.00;99.90;;;;;;5092905;28;20219;-44
2021/07/22 00:17:49;;;;;;;1999.90;999.90;;;6.00;99.90;;;;;;5096687;28;20178;-44
2021/07/22 00:20:16;;;;;;;1999.90;999.90;;;6.00;99.90;;;;;;5097313;28;20179;-46
2021/07/22 00:22:43;;;;;;;1999.90;999.90;;;6.00;99.90;;;;;;5097282;28;20171;-47
2021/07/22 00:25:10;;;;;;;1999.90;999.90;;;5.90;99.90;;;;;;5097281;28;20267;-46
2021/07/22 00:27:37;;;;;;;1999.90;999.90;;;5.90;99.90;;;;;;5097097;28;20523;-45
2021/07/22 00:30:05;;;;;;;1999.90;999.90;;;5.90;99.90;;;;;;5097032;28;20200;-47
2021/07/22 00:32:32;;;;;;;1999.90;999.90;;;5.90;99.90;;;;;;5096985;28;20170;-45
2021/07/22 00:34:58;;;;;;;1999.90;999.90;;;5.80;99.90;;;;;;5096884;28;20641;-47
2021/07/22 00:37:25;;;;;;;1999.90;999.90;;;5.80;99.90;;;;;;5096893;28;20255;-45
2021/07/22 00:39:52;;;;;;;1999.90;999.90;;;5.70;99.90;;;;;;5096839;28;20197;-44
2021/07/22 00:42:19;;;;;;;1999.90;999.90;;;5.70;99.90;;;;;;5096779;28;20179;-46
2021/07/22 00:44:45;;;;;;;1999.90;999.90;;;5.70;99.90;;;;;;5096957;28;20216;-45
2021/07/22 00:47:12;;;;;;;1999.90;999.90;;;5.60;99.90;;;;;;5096648;28;20168;-45
2021/07/22 00:49:39;;;;;;;1999.90;999.90;;;5.50;99.90;;;;;;5096409;28;20217;-44
2021/07/22 00:52:06;;;;;;;1999.90;999.90;;;5.50;99.90;;;;;;5096592;28;20321;-45
2021/07/22 00:54:32;;;;;;;1999.90;999.90;;;5.40;99.90;;;;;;5096595;28;20519;-45
2021/07/22 00:56:59;;;;;;;1999.90;999.90;;;5.30;99.90;;;;;;5096506;28;20170;-44
2021/07/22 00:59:26;;;;;;;1999.90;999.90;;;5.30;99.90;;;;;;5096448;28;20694;-47
2021/07/22 01:01:53;;;;;;;1999.90;999.90;;;5.40;99.90;;;;;;5096405;28;20207;-46
2021/07/22 01:04:20;;;;;;;1999.90;999.90;;;5.30;99.90;;;;;;5096498;28;20196;-45
2021/07/22 01:06:47;;;;;;;1999.90;999.90;;;5.30;99.90;;;;;;5096495;28;20163;-44
2021/07/22 01:09:14;;;;;;;1999.90;999.90;;;5.20;99.90;;;;;;5096422;28;20206;-46
2021/07/22 01:11:41;;;;;;;1999.90;999.90;;;5.30;99.90;;;;;;5096200;28;20295;-49
2021/07/22 01:14:07;;;;;;;1999.90;999.90;;;5.30;99.90;;;;;;5096147;28;20175;-46
2021/07/22 01:16:34;;;;;;;1999.90;999.90;;;5.30;99.90;;;;;;5095946;28;20696;-46
2021/07/22 01:19:01;;;;;;;1999.90;999.90;;;5.20;99.90;;;;;;5096042;28;20160;-46
2021/07/22 01:21:28;;;;;;;1999.90;999.90;;;5.20;99.90;;;;;;5095934;28;20299;-48
2021/07/22 01:23:54;;;;;;;1999.90;999.90;;;5.10;99.90;;;;;;5095949;28;20252;-49
2021/07/22 01:26:21;;;;;;;1999.90;999.90;;;5.10;99.90;;;;;;5096030;28;20160;-46
2021/07/22 01:28:48;;;;;;;1999.90;999.90;;;5.00;99.90;;;;;;5095344;28;20195;-48
2021/07/22 01:31:15;;;;;;;1999.90;999.90;;;5.00;99.90;;;;;;5095836;28;20168;-43
2021/07/22 01:33:42;;;;;;;1999.90;999.90;;;4.90;99.90;;;;;;5095801;28;20166;-45
2021/07/22 01:36:09;;;;;;;1999.90;999.90;;;4.90;99.90;;;;;;5095747;28;20209;-45
2021/07/22 01:38:36;;;;;;;1999.90;999.90;;;4.90;99.90;;;;;;5095612;28;20164;-45
2021/07/22 01:41:06;;;;;;;1999.90;999.90;;;4.80;99.90;;;;;;5095641;28;20201;-45
2021/07/22 01:43:33;;;;;;;1999.90;999.90;;;4.80;99.90;;;;;;5095572;28;20169;-45
2021/07/22 01:45:59;;;;;;;1999.90;999.90;;;4.90;99.90;;;;;;5095557;28;20190;-45
2021/07/22 01:48:26;;;;;;;1999.90;999.90;;;4.90;99.90;;;;;;5095326;28;20525;-45
2021/07/22 01:50:53;;;;;;;1999.90;999.90;;;4.80;99.90;;;;;;5095491;28;20261;-45
2021/07/22 01:53:20;;;;;;;1999.90;999.90;;;4.80;99.90;;;;;;5095498;28;20176;-43
2021/07/22 01:55:47;;;;;;;1999.90;999.90;;;4.90;99.90;;;;;;5095322;28;20688;-46
2021/07/22 01:58:13;;;;;;;1999.90;999.90;;;4.90;99.90;;;;;;5095291;28;20164;-46
2021/07/22 02:00:40;;;;;;;1999.90;999.90;;;4.80;99.90;;;;;;5095236;28;20187;-47
2021/07/22 02:03:07;;;;;;;1999.90;999.90;;;4.90;99.90;;;;;;5095214;28;20247;-48
2021/07/22 02:05:34;;;;;;;1999.90;999.90;;;4.90;99.90;;;;;;5095178;28;20191;-46
2021/07/22 02:08:01;;;;;;;1999.90;999.90;;;4.80;99.90;;;;;;5095065;28;20246;-45
2021/07/22 02:10:27;;;;;;;1999.90;999.90;;;4.80;99.90;;;;;;5094976;28;20255;-44
2021/07/22 02:12:54;;;;;;;1999.90;999.90;;;4.70;99.90;;;;;;5095123;28;20516;-46
2021/07/22 02:15:21;;;;;;;1999.90;999.90;;;4.70;99.90;;;;;;5094912;28;20235;-46
2021/07/22 02:17:48;;;;;;;1999.90;999.90;;;4.70;99.90;;;;;;5095001;28;20642;-44
2021/07/22 02:20:15;;;;;;;1999.90;999.90;;;4.80;99.90;;;;;;5094791;28;20167;-46
2021/07/22 02:22:41;;;;;;;1999.90;999.90;;;4.80;99.90;;;;;;5094685;28;20178;-46
2021/07/22 02:25:09;;;;;;;1999.90;999.90;;;4.80;99.90;;;;;;5094783;28;20643;-46
2021/07/22 02:27:36;;;;;;;1999.90;999.90;;;4.70;99.90;;;;;;5095059;28;20174;-46
2021/07/22 02:30:06;;;;;;;1999.90;999.90;;;4.80;99.90;;;;;;5094571;28;20213;-46
2021/07/22 02:32:33;;;;;;;1999.90;999.90;;;4.80;99.90;;;;;;5094605;28;20257;-48
2021/07/22 02:35:00;;;;;;;1999.90;999.90;;;4.70;99.90;;;;;;5094457;28;20168;-43
2021/07/22 02:37:26;;;;;;;1999.90;999.90;;;4.60;99.90;;;;;;5094643;28;20634;-45
2021/07/22 02:39:53;;;;;;;1999.90;999.90;;;4.60;99.90;;;;;;5093619;28;20166;-46
2021/07/22 02:42:20;;;;;;;1999.90;999.90;;;4.70;99.90;;;;;;5094411;28;20177;-44
2021/07/22 02:44:46;;;;;;;1999.90;999.90;;;4.60;99.90;;;;;;5094339;28;20173;-45
2021/07/22 02:47:13;;;;;;;1999.90;999.90;;;4.60;99.90;;;;;;5094278;28;20213;-44
2021/07/22 02:49:40;;;;;;;1999.90;999.90;;;4.60;99.90;;;;;;5094166;28;20195;-43
2021/07/22 02:52:08;;;;;;;1999.90;999.90;;;4.70;99.90;;;;;;5094260;28;20255;-46
2021/07/22 02:54:35;;;;;;;1999.90;999.90;;;4.50;99.90;;;;;;5094130;28;20185;-45
2021/07/22 02:57:02;;;;;;;1999.90;999.90;;;4.30;99.90;;;;;;5094096;28;20166;-44
2021/07/22 02:59:29;;;;;;;1999.90;999.90;;;4.20;99.90;;;;;;5094187;28;20182;-44
2021/07/22 03:01:56;;;;;;;1999.90;999.90;;;4.30;99.90;;;;;;5094208;28;20188;-45
2021/07/22 03:04:23;;;;;;;1999.90;999.90;;;4.20;99.90;;;;;;5093972;28;20221;-44
2021/07/22 03:06:50;;;;;;;1999.90;999.90;;;4.20;99.90;;;;;;5093872;28;20592;-44
2021/07/22 03:09:17;;;;;;;1999.90;999.90;;;4.10;99.90;;;;;;5093702;28;20703;-45
2021/07/22 03:11:43;;;;;;;1999.90;999.90;;;4.10;99.90;;;;;;5093853;28;20180;-45
2021/07/22 03:14:10;;;;;;;1999.90;999.90;;;4.10;99.90;;;;;;5093821;28;20205;-44
2021/07/22 03:16:37;;;;;;;1999.90;999.90;;;4.20;99.90;;;;;;5093633;28;20211;-45
2021/07/22 03:19:04;;;;;;;1999.90;999.90;;;4.20;99.90;;;;;;5093750;28;20168;-43
2021/07/22 03:21:31;;;;;;;1999.90;999.90;;;4.30;99.90;;;;;;5093821;28;20693;-45
2021/07/22 03:23:58;;;;;;;1999.90;999.90;;;4.30;99.90;;;;;;5093790;28;20609;-44
2021/07/22 03:26:24;;;;;;;1999.90;999.90;;;4.30;99.90;;;;;;5093598;28;20197;-45
2021/07/22 03:28:51;;;;;;;1999.90;999.90;;;4.30;99.90;;;;;;5093420;28;20277;-45
2021/07/22 03:31:18;;;;;;;1999.90;999.90;;;4.50;99.90;;;;;;5093519;28;20225;-45
2021/07/22 03:33:45;;;;;;;1999.90;999.90;;;4.70;99.90;;;;;;5093479;28;20655;-44
2021/07/22 03:36:12;;;;;;;1999.90;999.90;;;4.60;99.90;;;;;;5093294;28;20175;-46
2021/07/22 03:38:39;;;;;;;1999.90;999.90;;;4.70;99.90;;;;;;5093151;28;20184;-45
2021/07/22 03:41:06;;;;;;;1999.90;999.90;;;4.70;99.90;;;;;;5093276;28;20203;-47
2021/07/22 03:43:32;;;;;;;1999.90;999.90;;;4.80;99.90;;;;;;5093323;28;20628;-46
2021/07/22 03:46:00;;;;;;;1999.90;999.90;;;4.90;99.90;;;;;;5093468;28;20175;-45
2021/07/22 03:48:27;;;;;;;1999.90;999.90;;;4.90;99.90;;;;;;5093398;28;20167;-45
2021/07/22 03:50:54;;;;;;;1999.90;999.90;;;4.80;99.90;;;;;;5092992;28;20638;-46
2021/07/22 03:53:21;;;;;;;1999.90;999.90;;;4.80;99.90;;;;;;5093200;28;20171;-43
2021/07/22 03:55:48;;;;;;;1999.90;999.90;;;4.70;99.90;;;;;;5093183;28;20203;-47
2021/07/22 03:58:15;;;;;;;1999.90;999.90;;;4.60;99.90;;;;;;5093203;28;20203;-45
2021/07/22 04:00:41;;;;;;;1999.90;999.90;;;4.70;99.90;;;;;;5093015;28;20177;-45
2021/07/22 04:03:08;;;;;;;1999.90;999.90;;;4.60;99.90;;;;;;5093093;28;20168;-45
2021/07/22 04:05:35;;;;;;;1999.90;999.90;;;4.60;99.90;;;;;;5092972;28;20210;-42
2021/07/22 04:08:02;;;;;;;1999.90;999.90;;;4.50;99.90;;;;;;5093079;28;20179;-46
2021/07/22 04:10:30;;;;;;;1999.90;999.90;;;4.60;99.90;;;;;;5092957;28;20203;-45
2021/07/22 04:12:58;;;;;;;1999.90;999.90;;;4.50;99.90;;;;;;5092835;28;20168;-43
2021/07/22 04:15:25;;;;;;;1999.90;999.90;;;4.40;99.90;;;;;;5092708;28;20268;-44
2021/07/22 04:17:54;;;;;;;1999.90;999.90;;;4.40;99.90;;;;;;5092851;28;20679;-46
2021/07/22 04:20:22;;;;;;;1999.90;999.90;;;4.40;99.90;;;;;;5092658;28;20173;-44
2021/07/22 04:22:49;;;;;;;1999.90;999.90;;;4.40;99.90;;;;;;5092971;28;20172;-47
2021/07/22 04:25:16;;;;;;;1999.90;999.90;;;4.40;99.90;;;;;;5093099;28;20187;-45
2021/07/22 04:27:43;;;;;;;1999.90;999.90;;;4.40;99.90;;;;;;5093446;28;20530;-45
2021/07/22 04:30:11;;;;;;;1999.90;999.90;;;4.40;99.90;;;;;;5092928;28;20204;-45
2021/07/22 04:32:37;;;;;;;1999.90;999.90;;;4.40;99.90;;;;;;5092832;28;20238;-43
2021/07/22 04:35:08;;;;;;;1999.90;999.90;;;4.30;99.90;;;;;;5093045;28;20172;-44
2021/07/22 04:37:37;;;;;;;1999.90;999.90;;;4.40;99.90;;;;;;5093114;28;20174;-44
2021/07/22 04:40:08;;;;;;;1999.90;999.90;;;4.30;99.90;;;;;;5092933;28;20168;-46
2021/07/22 04:42:36;;;;;;;1999.90;999.90;;;4.30;99.90;;;;;;5093150;28;20599;-47
2021/07/22 04:45:03;;;;;;;1999.90;999.90;;;4.20;99.90;;;;;;5092891;28;20185;-46
2021/07/22 04:47:30;;;;;;;1999.90;999.90;;;4.20;99.90;;;;;;5092784;28;20170;-46
2021/07/22 04:49:57;;;;;;;1999.90;999.90;;;4.20;99.90;;;;;;5092751;28;20215;-49
2021/07/22 04:52:24;;;;;;;1999.90;999.90;;;4.10;99.90;;;;;;5092651;28;20171;-46
2021/07/22 04:54:51;;;;;;;1999.90;999.90;;;4.00;99.90;;;;;;5092692;28;20221;-44
2021/07/22 04:57:18;;;;;;;1999.90;999.90;;;4.00;99.90;;;;;;5092593;28;20199;-46
2021/07/22 04:59:45;;;;;;;1999.90;999.90;;;4.00;99.90;;;;;;5092622;28;20626;-44
2021/07/22 05:02:12;;;;;;;1999.90;999.90;;;4.00;99.90;;;;;;5093095;28;20164;-47
2021/07/22 05:04:38;;;;;;;1999.90;999.90;;;4.00;99.90;;;;;;5096434;28;20531;-46
2021/07/22 05:07:05;;;;;;;1999.90;999.90;;;4.00;99.90;;;;;;5096586;28;20160;-45
2021/07/22 05:09:32;;;;;;;1999.90;999.90;;;4.10;99.90;;;;;;5096190;28;20784;-45
2021/07/22 05:11:59;;;;;;;1999.90;999.90;;;4.00;99.90;;;;;;5096395;28;20164;-47
2021/07/22 05:14:26;;;;;;;1999.90;999.90;;;4.10;99.90;;;;;;5096324;28;20180;-45
2021/07/22 05:16:53;;;;;;;1999.90;999.90;;;4.20;99.90;;;;;;5096050;28;20215;-44
2021/07/22 05:19:20;;;;;;;1999.90;999.90;;;4.20;99.90;;;;;;5096172;28;20500;-44
2021/07/22 05:21:47;;;;;;;1999.90;999.90;;;4.10;99.90;;;;;;5096072;28;20168;-45
2021/07/22 05:24:13;;;;;;;1999.90;999.90;;;4.00;99.90;;;;;;5095930;28;20659;-43
2021/07/22 05:26:40;;;;;;;1999.90;999.90;;;3.90;99.90;;;;;;5096045;28;20582;-43
2021/07/22 05:29:07;;;;;;;1999.90;999.90;;;4.00;99.90;;;;;;5096068;28;20691;-45
2021/07/22 05:31:34;;;;;;;1999.90;999.90;;;3.90;99.90;;;;;;5095654;28;20219;-44
2021/07/22 05:34:01;;;;;;;1999.90;999.90;;;3.90;99.90;;;;;;5095876;28;20180;-44
2021/07/22 05:36:28;;;;;;;1999.90;999.90;;;3.90;99.90;;;;;;5095629;28;20189;-45
2021/07/22 05:38:55;;;;;;;1999.90;999.90;;;4.10;99.90;;;;;;5095725;28;20168;-45
2021/07/22 05:41:21;;;;;;;1999.90;999.90;;;4.10;99.90;;;;;;5095635;28;20167;-48
2021/07/22 05:43:48;;;;;;;1999.90;999.90;;;4.10;99.90;;;;;;5095282;28;20167;-43
2021/07/22 05:46:19;;;;;;;1999.90;999.90;;;4.20;99.90;;;;;;5095489;28;20200;-45
2021/07/22 05:48:47;;;;;;;1999.90;999.90;;;4.40;99.90;;;;;;5095159;28;20537;-47
2021/07/22 05:51:14;;;;;;;1999.90;999.90;;;4.30;99.90;;;;;;5095260;28;20160;-44
2021/07/22 05:53:41;;;;;;;1999.90;999.90;;;4.30;99.90;;;;;;5095359;28;20167;-46
2021/07/22 05:56:10;;;;;;;1999.90;999.90;;;4.40;99.90;;;;;;5095592;28;20168;-46
2021/07/22 05:58:37;;;;;;;1999.90;999.90;;;4.40;99.90;;;;;;5095550;28;20656;-43
2021/07/22 06:01:07;;;;;;;1999.90;999.90;;;4.40;99.90;;;;;;5095302;28;20559;-46
2021/07/22 06:03:34;;;;;;;1999.90;999.90;;;4.50;99.90;;;;;;5095007;28;20291;-44
2021/07/22 06:06:01;;;;;;;1999.90;999.90;;;4.40;99.90;;;;;;5095021;28;20162;-45
2021/07/22 06:08:27;;;;;;;1999.90;999.90;;;4.40;99.90;;;;;;5094998;28;20535;-44
2021/07/22 06:10:55;;;;;;;1999.90;999.90;;;4.40;99.90;;;;;;5095055;28;20172;-47
2021/07/22 06:13:22;;;;;;;1999.90;999.90;;;4.40;99.90;;;;;;5094811;28;20176;-42
2021/07/22 06:15:48;;;;;;;1999.90;999.90;;;4.50;99.90;;;;;;5094631;28;20576;-47
2021/07/22 06:18:15;;;;;;;1999.90;999.90;;;4.70;99.90;;;;;;5094810;28;20168;-49
2021/07/22 06:20:43;;;;;;;1999.90;999.90;;;5.10;99.90;;;;;;5094747;28;20642;-47
2021/07/22 06:23:10;;;;;;;1999.90;999.90;;;5.00;99.90;;;;;;5094425;28;20164;-49
2021/07/22 06:25:37;;;;;;;1999.90;999.90;;;5.00;99.90;;;;;;5094374;28;20208;-47
2021/07/22 06:28:04;;;;;;;1999.90;999.90;;;5.10;99.90;;;;;;5094004;28;20171;-48
2021/07/22 06:30:31;;;;;;;1999.90;999.90;;;5.10;99.90;;;;;;5094296;28;20199;-48
2021/07/22 06:32:58;;;;;;;1999.90;999.90;;;5.10;99.90;;;;;;5094573;28;20168;-46
2021/07/22 06:35:24;;;;;;;1999.90;999.90;;;5.20;99.90;;;;;;5094397;28;20570;-44
2021/07/22 06:37:52;;;;;;;1999.90;999.90;;;5.30;99.90;;;;;;5092934;28;20253;-46
2021/07/22 06:40:19;;;;;;;1999.90;999.90;;;5.30;99.90;;;;;;5093770;28;20537;-45
2021/07/22 06:42:45;;;;;;;1999.90;999.90;;;5.30;99.90;;;;;;5093270;28;20168;-45
2021/07/22 06:45:12;;;;;;;1999.90;999.90;;;5.30;99.90;;;;;;5093373;28;20319;-41
2021/07/22 06:47:40;;;;;;;1999.90;999.90;;;5.80;99.90;;;;;;5092576;28;20176;-49
2021/07/22 06:50:09;;;;;;;1999.90;999.90;;;5.80;99.90;;;;;;5093018;28;20688;-46
2021/07/22 06:52:40;;;;;;;1999.90;999.90;;;5.90;99.90;;;;;;5091189;28;20245;-44
2021/07/22 06:55:08;;;;;;;1999.90;999.90;;;6.80;99.90;;;;;;5093315;28;20637;-46
2021/07/22 06:57:35;;;;;;;1999.90;999.90;;;6.60;99.90;;;;;;5093669;28;20214;-55
2021/07/22 07:00:05;;;;;;;1999.90;999.90;;;6.40;99.90;;;;;;5093540;28;20173;-49
2021/07/22 07:02:33;;;;;;;1999.90;999.90;;;6.10;99.90;;;;;;5093840;28;20209;-52
2021/07/22 07:04:59;;;;;;;1999.90;999.90;;;6.00;99.90;;;;;;5093387;28;20175;-50
2021/07/22 07:07:26;;;;;;;1999.90;999.90;;;6.10;99.90;;;;;;5093576;28;20161;-46
2021/07/22 07:09:53;;;;;;;1999.90;999.90;;;6.20;99.90;;;;;;5092823;28;20346;-49
2021/07/22 07:12:20;;;;;;;1999.90;999.90;;;6.20;99.90;;;;;;5092830;28;20192;-45
2021/07/22 07:14:47;;;;;;;1999.90;999.90;;;6.40;99.90;;;;;;5092767;28;20168;-46
2021/07/22 07:17:13;;;;;;;1999.90;999.90;;;6.50;99.90;;;;;;5092795;28;20216;-48
2021/07/22 07:19:40;;;;;;;1999.90;999.90;;;6.60;99.90;;;;;;5092604;28;20695;-43
2021/07/22 07:22:07;;;;;;;1999.90;999.90;;;6.70;99.90;;;;;;5092591;28;20194;-45
2021/07/22 07:24:37;;;;;;;1999.90;999.90;;;6.90;99.90;;;;;;5092290;28;20187;-47
2021/07/22 07:27:07;;;;;;;1999.90;999.90;;;7.90;99.90;;;;;;5092574;28;20174;-46
2021/07/22 07:29:34;;;;;;;1999.90;999.90;;;7.80;99.90;;;;;;5091319;28;20576;-47
2021/07/22 07:32:02;;;;;;;1999.90;999.90;;;7.90;99.90;;;;;;5092874;28;20171;-45
2021/07/22 07:34:29;;;;;;;1999.90;999.90;;;7.80;99.90;;;;;;5092669;28;20196;-47
2021/07/22 07:36:56;;;;;;;1999.90;999.90;;;7.70;99.90;;;;;;5092566;28;20501;-45
2021/07/22 07:39:23;;;;;;;1999.90;999.90;;;7.70;99.90;;;;;;5091693;28;20742;-46
2021/07/22 07:41:50;;;;;;;1999.90;999.90;;;8.20;99.90;;;;;;5091660;28;20204;-49
2021/07/22 07:44:16;;;;;;;1999.90;999.90;;;8.00;99.90;;;;;;5092513;28;20229;-47
2021/07/22 07:46:43;;;;;;;1999.90;999.90;;;8.00;99.90;;;;;;5092288;28;20179;-51
2021/07/22 07:49:10;;;;;;;1999.90;999.90;;;7.90;99.90;;;;;;5091647;28;20301;-48
2021/07/22 07:51:37;;;;;;;1999.90;999.90;;;7.80;99.90;;;;;;5092244;28;20172;-50
2021/07/22 07:54:04;;;;;;;1999.90;999.90;;;8.20;99.90;;;;;;5092796;28;20194;-47
2021/07/22 07:56:30;;;;;;;1999.90;999.90;;;8.20;99.90;;;;;;5092610;28;20178;-46
2021/07/22 07:58:57;;;;;;;1999.90;999.90;;;8.10;99.90;;;;;;5092498;28;20183;-47
2021/07/22 08:01:27;;;;;;;1999.90;999.90;;;8.60;99.90;;;;;;5091944;28;20164;-49
2021/07/22 08:03:54;;;;;;;1999.90;999.90;;;8.60;99.90;;;;;;5092108;28;20171;-53
2021/07/22 08:06:21;;;;;;;1999.90;999.90;;;8.60;99.90;;;;;;5089676;28;20231;-46
2021/07/22 08:08:48;;;;;;;1999.90;999.90;;;8.40;99.90;;;;;;5092552;28;20523;-49
2021/07/22 08:11:15;;;;;;;1999.90;999.90;;;8.20;99.90;;;;;;5092623;28;20175;-49
2021/07/22 08:13:42;;;;;;;1999.90;999.90;;;8.30;99.90;;;;;;5092606;28;20174;-45
2021/07/22 08:16:16;;;;;;;1999.90;999.90;;;8.50;99.90;;;;;;5090407;28;20233;-48
2021/07/22 08:18:45;;;;;;;1999.90;999.90;;;8.60;99.90;;;;;;5092406;28;20189;-48
2021/07/22 08:21:15;;;;;;;1999.90;999.90;;;8.70;99.90;;;;;;5091225;28;20168;-47
2021/07/22 08:23:42;;;;;;;1999.90;999.90;;;8.70;99.90;;;;;;5092293;28;20229;-46
2021/07/22 08:26:09;;;;;;;1999.90;999.90;;;8.90;99.90;;;;;;5091948;28;20241;-47
2021/07/22 08:28:37;;;;;;;1999.90;999.90;;;9.00;99.90;;;;;;5091616;28;20168;-49
2021/07/22 08:31:04;;;;;;;1999.90;999.90;;;9.00;99.90;;;;;;5091933;28;20179;-49
2021/07/22 08:33:31;;;;;;;1999.90;999.90;;;9.20;99.90;;;;;;5091733;28;20689;-47
2021/07/22 08:35:58;;;;;;;1999.90;999.90;;;9.30;99.90;;;;;;5091839;28;20175;-45
2021/07/22 08:38:25;;;;;;;1999.90;999.90;;;9.70;99.90;;;;;;5094898;28;20583;-47
2021/07/22 08:40:52;;;;;;;1999.90;999.90;;;9.70;99.90;;;;;;5094607;28;20174;-47
2021/07/22 08:43:20;;;;;;;1999.90;999.90;;;10.00;99.90;;;;;;5095743;28;20164;-47
2021/07/22 08:45:48;;;;;;;1999.90;999.90;;;10.00;99.90;;;;;;5093849;28;20222;-47
2021/07/22 08:48:15;;;;;;;1999.90;999.90;;;9.90;99.90;;;;;;5095266;28;20266;-46
2021/07/22 08:50:45;;;;;;;1999.90;999.90;;;9.90;99.90;;;;;;5095245;28;20648;-47
2021/07/22 08:53:15;;;;;;;1999.90;999.90;;;10.00;99.90;;;;;;5092913;28;20664;-46
2021/07/22 08:55:46;;;;;;;1999.90;999.90;;;10.00;99.90;;;;;;5095184;28;20176;-48
2021/07/22 08:58:13;;;;;;;1999.90;999.90;;;10.30;99.90;;;;;;5092929;28;20167;-49
2021/07/22 09:00:39;;;;;;;1999.90;999.90;;;10.40;99.90;;;;;;5095354;28;20172;-49
2021/07/22 09:03:12;;;;;;;1999.90;999.90;;;10.40;99.90;;;;;;5095270;28;20642;-46
2021/07/22 09:05:40;;;;;;;1999.90;999.90;;;10.30;99.90;;;;;;5095138;28;20213;-48
2021/07/22 09:08:07;;;;;;;1999.90;999.90;;;10.30;99.90;;;;;;5095244;28;20175;-46
2021/07/22 09:10:34;;;;;;;1999.90;999.90;;;10.30;99.90;;;;;;5095044;28;20236;-47
2021/07/22 09:13:01;;;;;;;1999.90;999.90;;;10.30;99.90;;;;;;5094787;28;20160;-47
2021/07/22 09:15:32;;;;;;;1999.90;999.90;;;10.30;99.90;;;;;;5095037;28;20568;-44
2021/07/22 09:17:59;;;;;;;1999.90;999.90;;;10.40;99.90;;;;;;5095540;28;20599;-43
2021/07/22 09:20:28;;;;;;;1999.90;999.90;;;10.60;99.90;;;;;;5095436;28;20211;-45
2021/07/22 09:22:55;;;;;;;1999.90;999.90;;;10.60;99.90;;;;;;5095102;28;20259;-46
2021/07/22 09:25:42;;;;;;;1999.90;999.90;;;10.70;99.90;;;;;;5094716;28;20252;-47
2021/07/22 09:28:14;;;;;;;1999.90;999.90;;;10.70;99.90;;;;;;5095240;28;20614;-50
2021/07/22 09:30:54;;;;;;;1999.90;999.90;;;10.80;99.90;;;;;;5095086;28;20275;-50
2021/07/22 09:33:36;;;;;;;1999.90;999.90;;;10.90;99.90;;;;;;5094775;28;20156;-50
2021/07/22 09:36:04;;;;;;;1999.90;999.90;;;11.10;99.90;;;;;;5094892;28;20183;-54
2021/07/22 09:38:30;;;;;;;1999.90;999.90;;;11.20;99.90;;;;;;5094717;28;20179;-51
2021/07/22 09:40:57;;;;;;;1999.90;999.90;;;11.80;99.90;;;;;;5094551;28;20176;-48
2021/07/22 09:43:39;;;;;;;1999.90;999.90;;;12.40;99.90;;;;;;5093126;28;20263;-50
2021/07/22 09:46:06;;;;;;;1999.90;999.90;;;12.20;99.90;;;;;;5094163;28;20183;-49
2021/07/22 09:48:33;;;;;;;1999.90;999.90;;;12.10;99.90;;;;;;5094009;28;20213;-47
2021/07/22 09:51:00;;;;;;;1999.90;999.90;;;12.10;99.90;;;;;;5094771;28;20172;-47
2021/07/22 09:53:28;;;;;;;1999.90;999.90;;;12.00;99.90;;;;;;5094419;28;20259;-53
2021/07/22 09:55:56;;;;;;;1999.90;999.90;;;12.10;99.90;;;;;;5094227;28;20645;-53
2021/07/22 09:58:24;;;;;;;1999.90;999.90;;;12.20;99.90;;;;;;5093619;28;20225;-52
2021/07/22 10:00:51;;;;;;;1999.90;999.90;;;12.20;99.90;;;;;;5093444;28;20172;-54
2021/07/22 10:03:20;;;;;;;1999.90;999.90;;;12.20;99.90;;;;;;5092464;28;20164;-52
2021/07/22 10:05:51;;;;;;;1999.90;999.90;;;12.20;99.90;;;;;;5093636;28;20248;-49
2021/07/22 10:08:20;;;;;;;1999.90;999.90;;;12.30;99.90;;;;;;5090305;28;20262;-48
2021/07/22 10:10:56;;;;;;;1999.90;999.90;;;12.80;99.90;;;;;;5093702;28;20269;-47
2021/07/22 10:13:42;;;;;;;1999.90;999.90;;;13.90;99.90;;;;;;5092244;28;20167;-45
2021/07/22 10:16:14;;;;;;;1999.90;999.90;;;15.10;99.90;;;;;;5093010;28;20270;-48
2021/07/22 10:18:47;;;;;;;1999.90;999.90;;;15.80;97.60;;;;;;5093888;28;20184;-45
2021/07/22 10:21:15;;;;;;;1999.90;999.90;;;16.30;96.10;;;;;;5093706;28;20162;-50
2021/07/22 10:23:43;;;;;;;1999.90;999.90;;;16.60;94.30;;;;;;5092689;28;20179;-51
2021/07/22 10:26:10;;;;;;;1999.90;999.90;;;16.70;87.80;;;;;;5094055;28;20203;-50
2021/07/22 10:28:38;;;;;;;1999.90;999.90;;;16.80;85.50;;;;;;5093466;28;20265;-45
2021/07/22 10:31:06;;;;;;;1999.90;999.90;;;16.50;73.20;;;;;;5093392;28;20629;-49
2021/07/22 10:33:36;;;;;;;1999.90;999.90;;;15.10;84.90;;;;;;5093280;28;20160;-45
2021/07/22 10:36:06;;;;;;;1999.90;999.90;;;14.80;95.50;;;;;;5091107;28;20175;-56
2021/07/22 10:38:49;;;;;;;1999.90;999.90;;;14.70;98.40;;;;;;5092025;28;20207;-56
2021/07/22 10:41:36;;;;;;;1999.90;999.90;;;15.20;98.80;;;;;;5093476;28;20240;-50
2021/07/22 10:44:07;;;;;;;1999.90;999.90;;;15.70;97.10;;;;;;5093971;28;20172;-50
2021/07/22 10:47:07;;;;;;;1999.90;999.90;;;16.00;94.70;;;;;;5094342;28;20546;-47
2021/07/22 10:49:43;;;;;;;1999.90;999.90;;;16.10;93.90;;;;;;5062440;28;20281;-44
2021/07/22 10:52:15;;;;;;;1999.90;999.90;;;15.60;93.20;;;;;;5073292;28;20153;-48
2021/07/22 10:54:43;;;;;;;1999.90;999.90;;;14.90;95.10;;;;;;5088981;28;20184;-47
2021/07/22 10:57:37;;;;;;;1999.90;999.90;;;14.20;98.30;;;;;;5093666;28;20160;-47
2021/07/22 11:00:18;;;;;;;1999.90;999.90;;;13.80;99.90;;;;;;5083322;28;20234;-47
2021/07/22 11:02:47;;;;;;;1999.90;999.90;;;13.80;99.90;;;;;;5091475;28;20178;-47
2021/07/22 11:05:24;;;;;;;1999.90;999.90;;;14.10;99.90;;;;;;5092842;28;20168;-50
2021/07/22 11:08:21;;;;;;;1999.90;999.90;;;14.40;99.90;;;;;;5092848;28;20166;-44
2021/07/22 11:11:00;;;;;;;1999.90;999.90;;;14.40;97.00;;;;;;5091413;28;20242;-58
2021/07/22 11:13:38;;;;;;;1999.90;999.90;;;14.40;99.90;;;;;;5091226;28;20168;-48
2021/07/22 11:16:28;;;;;;;1999.90;999.90;;;14.80;99.90;;;;;;5090929;28;20220;-53
2021/07/22 11:18:59;;;;;;;1999.90;999.90;;;14.40;97.10;;;;;;5092397;28;20164;-49
2021/07/22 11:21:34;;;;;;;1999.90;999.90;;;14.20;96.30;;;;;;5092818;28;20152;-56
2021/07/22 11:24:03;;;;;;;1999.90;999.90;;;14.00;99.20;;;;;;5086392;28;20187;-49
2021/07/22 11:26:32;;;;;;;1999.90;999.90;;;14.80;99.90;;;;;;5093054;28;20164;-53
2021/07/22 11:29:00;;;;;;;1999.90;999.90;;;15.40;92.90;;;;;;5092491;28;20634;-48
2021/07/22 11:31:31;;;;;;;1999.90;999.90;;;16.30;83.30;;;;;;5089871;28;20195;-46
2021/07/22 11:34:02;;;;;;;1999.90;999.90;;;16.50;82.90;;;;;;5092546;28;20251;-47
2021/07/22 11:36:32;;;;;;;1999.90;999.90;;;17.10;79.00;;;;;;5089571;28;20156;-47
2021/07/22 11:39:00;;;;;;;1999.90;999.90;;;16.70;66.40;;;;;;5092161;28;20190;-47
2021/07/22 11:41:27;;;;;;;1999.90;999.90;;;15.90;78.80;;;;;;5092383;28;20178;-51
2021/07/22 11:43:58;;;;;;;1999.90;999.90;;;15.50;84.10;;;;;;5092520;28;20164;-50
2021/07/22 11:46:44;;;;;;;1999.90;999.90;;;15.30;87.20;;;;;;5092462;28;20163;-49
2021/07/22 11:49:12;;;;;;;1999.90;999.90;;;14.90;90.30;;;;;;5090062;28;20240;-54
2021/07/22 11:51:44;;;;;;;1999.90;999.90;;;14.50;91.30;;;;;;5092081;28;20175;-53
2021/07/22 11:54:12;;;;;;;1999.90;999.90;;;14.20;92.00;;;;;;5089803;28;20164;-49
2021/07/22 11:56:39;;;;;;;1999.90;999.90;;;14.00;95.50;;;;;;5092158;28;20175;-52
2021/07/22 11:59:11;;;;;;;1999.90;999.90;;;14.70;99.70;;;;;;5092449;28;20178;-52
2021/07/22 12:01:48;;;;;;;1999.90;999.90;;;15.20;93.50;;;;;;5092648;28;20631;-55
2021/07/22 12:04:26;;;;;;;1999.90;999.90;;;15.30;90.30;;;;;;5092306;28;20176;-52
2021/07/22 12:06:53;;;;;;;1999.90;999.90;;;14.90;91.50;;;;;;5092309;28;20525;-54
2021/07/22 12:09:21;;;;;;;1999.90;999.90;;;14.80;92.80;;;;;;5092459;28;20293;-49
2021/07/22 12:11:51;;;;;;;1999.90;999.90;;;14.90;91.00;;;;;;5095537;28;20639;-47